Time;durP1;ratioP1;P1;durP2;ratioP2;P2;SDS_P1;SDS_P2;PMS_P1;PMS_P2;Temp;Humidity;BMP_temperature;BMP_pressure;BME280_temperature;BME280_humidity;BME280_pressure;Samples;Min_cycle;Max_cycle;Signal;HPM_P1;HPM_P2
2023/10/23 00:00:47;;;;;;;7.47;4.65;;;;;;;8.79;100.00;101164.91;5012022;28;20551;-70
2023/10/23 00:03:12;;;;;;;6.75;4.80;;;;;;;8.77;100.00;101161.41;5011414;28;20076;-70
2023/10/23 00:05:37;;;;;;;8.75;5.50;;;;;;;8.76;100.00;101161.47;5023514;28;20049;-69
2023/10/23 00:08:03;;;;;;;6.13;4.75;;;;;;;8.72;100.00;101165.34;5032113;28;20112;-70
2023/10/23 00:10:28;;;;;;;11.07;6.40;;;;;;;8.74;100.00;101166.13;5032323;28;20037;-71
2023/10/23 00:12:55;;;;;;;8.80;4.90;;;;;;;8.69;100.00;101166.41;5025059;28;20080;-69
2023/10/23 00:15:20;;;;;;;11.13;5.70;;;;;;;8.69;100.00;101170.00;5012262;28;20042;-69
2023/10/23 00:17:46;;;;;;;6.68;5.22;;;;;;;8.68;100.00;101172.81;5012134;28;20044;-70
2023/10/23 00:20:11;;;;;;;9.52;5.57;;;;;;;8.69;100.00;101169.13;5011846;28;20490;-73
2023/10/23 00:22:37;;;;;;;8.00;5.10;;;;;;;8.64;100.00;101172.13;5032309;28;20358;-70
2023/10/23 00:25:02;;;;;;;8.93;5.25;;;;;;;8.58;100.00;101174.28;5032047;28;20523;-69
2023/10/23 00:27:28;;;;;;;6.78;4.10;;;;;;;8.53;100.00;101169.13;5027271;28;20554;-74
2023/10/23 00:29:53;;;;;;;8.00;5.13;;;;;;;8.52;100.00;101166.53;5044119;28;20050;-69
2023/10/23 00:32:19;;;;;;;8.77;5.10;;;;;;;8.47;100.00;101164.09;5011202;28;20474;-71
2023/10/23 00:34:44;;;;;;;11.75;6.47;;;;;;;8.55;100.00;101171.78;5012318;28;20029;-71
2023/10/23 00:37:10;;;;;;;9.57;5.15;;;;;;;8.49;100.00;101172.16;5026134;28;20075;-71
2023/10/23 00:39:35;;;;;;;9.73;5.55;;;;;;;8.45;100.00;101165.16;5030116;28;20386;-70
2023/10/23 00:42:02;;;;;;;7.90;5.30;;;;;;;8.46;100.00;101175.91;5012125;28;20125;-70
2023/10/23 00:44:30;;;;;;;9.05;5.20;;;;;;;8.41;100.00;101176.16;5009622;28;20436;-69
2023/10/23 00:46:55;;;;;;;10.05;5.57;;;;;;;8.43;100.00;101178.78;5012289;28;20045;-68
2023/10/23 00:49:21;;;;;;;11.93;5.97;;;;;;;8.42;100.00;101164.34;5010967;28;20041;-68
2023/10/23 00:51:46;;;;;;;12.48;6.15;;;;;;;8.42;100.00;101164.34;5016120;28;20038;-69
2023/10/23 00:54:14;;;;;;;10.50;6.68;;;;;;;8.48;100.00;101175.81;5010194;28;20025;-69
2023/10/23 00:56:40;;;;;;;9.80;6.47;;;;;;;8.48;100.00;101179.38;5010602;28;20026;-69
2023/10/23 00:59:07;;;;;;;8.05;5.45;;;;;;;8.41;100.00;101178.88;5029702;28;20040;-73
2023/10/23 01:01:33;;;;;;;11.02;5.30;;;;;;;8.36;100.00;101178.28;5027134;28;20048;-69
2023/10/23 01:04:00;;;;;;;11.18;5.70;;;;;;;8.34;100.00;101187.41;5029911;28;20034;-69
2023/10/23 01:06:26;;;;;;;12.95;5.95;;;;;;;8.35;100.00;101181.06;5030874;28;20042;-69
2023/10/23 01:08:52;;;;;;;8.80;5.80;;;;;;;8.30;100.00;101180.41;5028961;28;20033;-71
2023/10/23 01:11:17;;;;;;;11.95;6.00;;;;;;;8.30;100.00;101186.75;5010466;28;20095;-72
2023/10/23 01:13:43;;;;;;;10.43;5.68;;;;;;;8.31;100.00;101187.63;5009452;28;20431;-72
2023/10/23 01:16:08;;;;;;;10.18;6.15;;;;;;;8.31;100.00;101190.31;5009736;28;20025;-71
2023/10/23 01:18:33;;;;;;;11.80;6.18;;;;;;;8.30;100.00;101192.16;5009877;28;20394;-70
2023/10/23 01:21:00;;;;;;;12.23;6.63;;;;;;;8.31;100.00;101199.31;5010696;28;20033;-70
2023/10/23 01:23:28;;;;;;;12.10;6.00;;;;;;;8.30;100.00;101200.28;5029447;28;20503;-69
2023/10/23 01:25:54;;;;;;;13.02;5.97;;;;;;;8.34;100.00;101196.41;5010860;28;20037;-71
2023/10/23 01:28:19;;;;;;;10.93;6.55;;;;;;;8.33;100.00;101200.09;5020295;28;20488;-70
2023/10/23 01:30:45;;;;;;;10.15;5.78;;;;;;;8.31;100.00;101198.44;5029287;28;20041;-70
2023/10/23 01:33:10;;;;;;;10.07;6.25;;;;;;;8.27;100.00;101197.75;5012650;28;20040;-71
2023/10/23 01:35:36;;;;;;;11.35;5.32;;;;;;;8.26;100.00;101200.56;5020351;28;20556;-70
2023/10/23 01:38:02;;;;;;;8.73;5.60;;;;;;;8.26;100.00;101187.00;5009520;28;20117;-70
2023/10/23 01:40:27;;;;;;;8.48;5.50;;;;;;;8.25;100.00;101174.38;5010864;28;20474;-69
2023/10/23 01:42:52;;;;;;;7.88;5.45;;;;;;;8.23;100.00;101193.47;5012783;28;20562;-70
2023/10/23 01:45:18;;;;;;;11.52;5.93;;;;;;;8.21;100.00;101181.84;5010678;28;20549;-69
2023/10/23 01:47:44;;;;;;;7.93;6.28;;;;;;;8.17;100.00;101185.69;5009790;28;20506;-68
2023/10/23 01:50:10;;;;;;;15.55;6.55;;;;;;;8.14;100.00;101188.56;5009485;28;20068;-70
2023/10/23 01:52:35;;;;;;;8.95;5.10;;;;;;;8.13;100.00;101194.94;5010227;28;20042;-72
2023/10/23 01:55:01;;;;;;;11.50;5.53;;;;;;;8.08;100.00;101188.91;5010708;28;20112;-71
2023/10/23 01:57:27;;;;;;;9.98;5.53;;;;;;;8.07;100.00;101184.47;5009928;28;20381;-70
2023/10/23 01:59:53;;;;;;;7.80;5.13;;;;;;;8.10;100.00;101189.69;5028419;28;20036;-70
2023/10/23 02:02:18;;;;;;;8.13;4.95;;;;;;;8.07;100.00;101189.88;5029172;28;20026;-70
2023/10/23 02:04:44;;;;;;;8.93;5.85;;;;;;;8.06;100.00;101182.69;5030031;28;20451;-70
2023/10/23 02:07:09;;;;;;;10.68;5.50;;;;;;;8.02;100.00;101182.03;5029824;28;20080;-69
2023/10/23 02:09:34;;;;;;;8.98;5.50;;;;;;;8.02;100.00;101182.03;5012444;28;20037;-69
2023/10/23 02:12:01;;;;;;;9.07;5.38;;;;;;;8.02;100.00;101190.16;5029453;28;20044;-71
2023/10/23 02:14:26;;;;;;;11.48;5.93;;;;;;;7.98;100.00;101185.84;5028658;28;20386;-70
2023/10/23 02:16:52;;;;;;;18.95;7.85;;;;;;;8.02;100.00;101194.66;5028559;28;20033;-71
2023/10/23 02:19:17;;;;;;;10.02;5.25;;;;;;;8.00;100.00;101196.59;5030416;28;20470;-69
2023/10/23 02:21:49;;;;;;;13.57;6.00;;;;;;;7.98;100.00;101207.53;5028457;28;20046;-70
2023/10/23 02:24:15;;;;;;;13.00;6.20;;;;;;;7.95;100.00;101204.97;5028729;28;20033;-69
2023/10/23 02:26:41;;;;;;;13.90;5.80;;;;;;;7.96;100.00;101206.72;5013382;28;20423;-69
2023/10/23 02:29:06;;;;;;;9.70;5.68;;;;;;;7.90;100.00;101207.06;5022590;28;20025;-69
2023/10/23 02:31:32;;;;;;;10.95;5.57;;;;;;;7.87;100.00;101205.41;4997087;28;20127;-71
2023/10/23 02:33:57;;;;;;;12.82;5.70;;;;;;;7.88;100.00;101219.81;5008403;28;20160;-69
2023/10/23 02:36:22;;;;;;;10.30;6.15;;;;;;;7.88;100.00;101225.22;5009970;28;20107;-71
2023/10/23 02:38:49;;;;;;;8.77;6.13;;;;;;;7.81;100.00;101204.88;5019281;28;20461;-70
2023/10/23 02:41:15;;;;;;;11.70;5.68;;;;;;;7.83;100.00;101214.69;5029478;28;20136;-70
2023/10/23 02:43:41;;;;;;;10.18;5.65;;;;;;;7.83;100.00;101221.91;5011969;28;20545;-70
2023/10/23 02:46:06;;;;;;;10.50;5.97;;;;;;;7.82;100.00;101218.31;5029119;28;20033;-70
2023/10/23 02:48:32;;;;;;;12.15;5.90;;;;;;;7.81;100.00;101219.28;5029507;28;20449;-72
2023/10/23 02:50:58;;;;;;;11.25;6.40;;;;;;;7.82;100.00;101220.16;5028558;28;20040;-72
2023/10/23 02:53:24;;;;;;;13.65;6.00;;;;;;;7.80;100.00;101222.97;5020748;28;20029;-71
2023/10/23 02:55:51;;;;;;;13.38;6.00;;;;;;;7.82;100.00;101212.03;5010052;28;20022;-71
2023/10/23 02:58:17;;;;;;;15.98;7.03;;;;;;;7.81;100.00;101210.28;5025042;28;20025;-71
2023/10/23 03:00:42;;;;;;;14.57;6.05;;;;;;;7.80;100.00;101216.69;5011229;28;20393;-72
2023/10/23 03:03:09;;;;;;;9.45;5.35;;;;;;;7.73;100.00;101216.13;5029320;28;20051;-72
2023/10/23 03:05:34;;;;;;;15.35;5.93;;;;;;;7.67;100.00;101203.78;5019806;28;20426;-72
2023/10/23 03:07:59;;;;;;;13.90;6.45;;;;;;;7.75;100.00;101221.47;5009975;28;20137;-71
2023/10/23 03:10:26;;;;;;;12.45;6.50;;;;;;;7.71;100.00;101217.19;5008266;28;20030;-70
2023/10/23 03:12:51;;;;;;;12.68;6.13;;;;;;;7.66;100.00;101210.19;5021331;28;20542;-71
2023/10/23 03:15:17;;;;;;;16.90;6.22;;;;;;;7.66;100.00;101220.13;5008396;28;20128;-70
2023/10/23 03:17:42;;;;;;;14.38;6.47;;;;;;;7.62;100.00;101221.25;4991651;28;20022;-71
2023/10/23 03:20:08;;;;;;;13.48;5.88;;;;;;;7.61;100.00;101223.09;4995735;28;20120;-71
2023/10/23 03:22:34;;;;;;;12.95;6.82;;;;;;;7.61;100.00;101222.22;5029712;28;20041;-72
2023/10/23 03:25:00;;;;;;;8.77;5.07;;;;;;;7.53;100.00;101222.63;5031959;28;20029;-70
2023/10/23 03:27:26;;;;;;;9.10;5.32;;;;;;;7.50;100.00;101222.78;5033128;28;20037;-71
2023/10/23 03:29:51;;;;;;;10.00;5.68;;;;;;;7.47;100.00;101222.09;5033375;28;20100;-75
2023/10/23 03:32:17;;;;;;;10.10;5.05;;;;;;;7.47;100.00;101227.50;5033405;28;20034;-71
2023/10/23 03:34:42;;;;;;;10.98;5.90;;;;;;;7.44;100.00;101224.94;5031760;28;20029;-71
2023/10/23 03:37:07;;;;;;;7.68;5.55;;;;;;;7.35;100.00;101221.78;5005335;28;20026;-71
2023/10/23 03:39:33;;;;;;;8.57;5.15;;;;;;;7.30;100.00;101212.16;5013216;28;20383;-71
2023/10/23 03:41:59;;;;;;;10.57;5.50;;;;;;;7.30;100.00;101221.13;5012070;28;20485;-71
2023/10/23 03:44:24;;;;;;;8.38;5.03;;;;;;;7.25;100.00;101225.94;4996543;28;20040;-72
2023/10/23 03:46:50;;;;;;;9.23;4.72;;;;;;;7.19;100.00;101231.66;5011931;28;20133;-71
2023/10/23 03:49:15;;;;;;;8.05;4.43;;;;;;;7.15;100.00;101227.38;5013061;28;20068;-71
2023/10/23 03:51:40;;;;;;;10.30;5.38;;;;;;;7.12;100.00;101235.63;5012708;28;20384;-72
2023/10/23 03:54:06;;;;;;;9.65;4.82;;;;;;;7.09;100.00;101233.97;4995967;28;20099;-71
2023/10/23 03:56:31;;;;;;;8.90;4.88;;;;;;;7.05;100.00;101224.25;5013263;28;20014;-71
2023/10/23 03:58:57;;;;;;;8.02;4.00;;;;;;;7.02;100.00;101232.53;5016781;28;20128;-72
2023/10/23 04:01:22;;;;;;;7.88;4.75;;;;;;;6.99;100.00;101235.38;5012614;28;20038;-71
2023/10/23 04:03:47;;;;;;;6.07;4.35;;;;;;;6.97;100.00;101241.84;5013043;28;20406;-71
2023/10/23 04:06:13;;;;;;;7.75;4.43;;;;;;;6.94;100.00;101234.75;5013344;28;20069;-72
2023/10/23 04:08:38;;;;;;;7.63;4.63;;;;;;;6.92;100.00;101236.66;5011743;28;20038;-71
2023/10/23 04:11:03;;;;;;;8.27;4.28;;;;;;;6.88;100.00;101235.06;5012874;28;20030;-71
2023/10/23 04:13:29;;;;;;;9.32;5.03;;;;;;;6.88;100.00;101241.34;5023483;28;20040;-71
2023/10/23 04:15:57;;;;;;;7.40;4.40;;;;;;;6.86;100.00;101239.69;5032533;28;20052;-70
2023/10/23 04:18:24;;;;;;;7.75;4.65;;;;;;;6.80;100.00;101235.44;5032343;28;20100;-72
2023/10/23 04:20:50;;;;;;;7.63;3.95;;;;;;;6.77;100.00;101234.75;5032303;28;20050;-71
2023/10/23 04:23:15;;;;;;;6.85;4.50;;;;;;;6.75;100.00;101232.09;5028222;28;20075;-70
2023/10/23 04:25:41;;;;;;;9.88;4.35;;;;;;;6.73;100.00;101234.03;5012358;28;20030;-70
2023/10/23 04:28:06;;;;;;;15.82;4.95;;;;;;;6.69;100.00;101231.53;4997714;28;20025;-72
2023/10/23 04:30:31;;;;;;;5.93;4.45;;;;;;;6.66;100.00;101240.66;5011892;28;20041;-71
2023/10/23 04:32:57;;;;;;;11.02;4.30;;;;;;;6.63;100.00;101239.00;5019702;28;20025;-73
2023/10/23 04:35:22;;;;;;;7.35;4.05;;;;;;;6.59;100.00;101241.94;5013096;28;20045;-71
2023/10/23 04:37:47;;;;;;;10.85;5.03;;;;;;;6.58;100.00;101249.19;5030782;28;20034;-71
2023/10/23 04:40:13;;;;;;;7.55;4.68;;;;;;;6.57;100.00;101246.53;5029274;28;20071;-71
2023/10/23 04:42:38;;;;;;;13.75;4.88;;;;;;;6.54;100.00;101247.56;5029161;28;20516;-71
2023/10/23 04:45:04;;;;;;;16.50;5.75;;;;;;;6.50;100.00;101245.97;5030368;28;20559;-75
2023/10/23 04:47:30;;;;;;;10.75;4.88;;;;;;;6.46;100.00;101243.50;5031353;28;20063;-75
2023/10/23 04:49:55;;;;;;;7.45;4.55;;;;;;;6.44;100.00;101250.81;5031600;28;20434;-75
2023/10/23 04:52:20;;;;;;;7.70;4.45;;;;;;;6.42;100.00;101250.00;5019974;28;20038;-75
2023/10/23 04:54:46;;;;;;;12.07;4.80;;;;;;;6.38;100.00;101241.16;5018834;28;20044;-70
2023/10/23 04:57:12;;;;;;;10.52;5.43;;;;;;;6.35;100.00;101235.91;5030434;28;20053;-71
2023/10/23 04:59:37;;;;;;;33.40;6.60;;;;;;;6.31;100.00;101237.00;5028767;28;20053;-71
2023/10/23 05:02:03;;;;;;;12.02;5.15;;;;;;;6.29;100.00;101236.19;5031499;28;20048;-71
2023/10/23 05:04:30;;;;;;;25.83;6.20;;;;;;;6.27;100.00;101235.41;5031547;28;20037;-71
2023/10/23 05:06:56;;;;;;;18.00;5.65;;;;;;;6.25;100.00;101232.78;5029810;28;20060;-71
2023/10/23 05:09:21;;;;;;;9.13;4.93;;;;;;;6.23;100.00;101231.97;5031567;28;20389;-73
2023/10/23 05:11:47;;;;;;;10.85;5.65;;;;;;;6.22;100.00;101237.47;5022871;28;20029;-72
2023/10/23 05:14:12;;;;;;;8.48;4.95;;;;;;;6.20;100.00;101240.25;5015978;28;20034;-70
2023/10/23 05:16:38;;;;;;;9.05;5.43;;;;;;;6.17;100.00;101237.69;5011605;28;20034;-70
2023/10/23 05:19:03;;;;;;;6.13;4.20;;;;;;;6.16;100.00;101240.47;5011549;28;20053;-71
2023/10/23 05:21:28;;;;;;;9.88;5.03;;;;;;;6.12;100.00;101237.03;5009889;28;20025;-71
2023/10/23 05:23:54;;;;;;;10.93;4.43;;;;;;;6.08;100.00;101230.00;5011548;28;20053;-72
2023/10/23 05:26:20;;;;;;;9.50;4.25;;;;;;;6.07;100.00;101230.97;5011564;28;20037;-72
2023/10/23 05:28:46;;;;;;;7.25;4.10;;;;;;;6.06;100.00;101240.00;5024258;28;20037;-72
2023/10/23 05:31:12;;;;;;;6.32;4.38;;;;;;;6.05;100.00;101238.25;5031106;28;20440;-71
2023/10/23 05:33:37;;;;;;;9.82;4.18;;;;;;;6.03;100.00;101229.34;5029890;28;20431;-70
2023/10/23 05:36:04;;;;;;;11.52;3.40;;;;;;;5.98;100.00;101229.56;5030874;28;20148;-71
2023/10/23 05:38:31;;;;;;;5.30;3.28;;;;;;;5.97;100.00;101230.53;5030929;28;20017;-72
2023/10/23 05:40:57;;;;;;;6.15;3.92;;;;;;;5.94;100.00;101224.38;5028835;28;20033;-70
2023/10/23 05:43:26;;;;;;;14.30;3.58;;;;;;;5.92;100.00;101234.38;5021633;28;20044;-70
2023/10/23 05:45:53;;;;;;;9.25;4.95;;;;;;;5.89;100.00;101227.28;5022436;28;20038;-73
2023/10/23 05:48:18;;;;;;;7.85;3.60;;;;;;;5.87;100.00;101234.56;5029233;28;20244;-70
2023/10/23 05:50:43;;;;;;;6.10;4.05;;;;;;;5.84;100.00;101230.19;5029310;28;20160;-71
2023/10/23 05:53:09;;;;;;;5.75;3.88;;;;;;;5.84;100.00;101232.00;5012032;28;20048;-70
2023/10/23 05:55:35;;;;;;;5.47;3.78;;;;;;;5.81;100.00;101237.53;5011087;28;20030;-70
2023/10/23 05:58:00;;;;;;;7.65;3.97;;;;;;;5.78;100.00;101235.88;5025122;28;20116;-71
2023/10/23 06:00:26;;;;;;;4.78;3.70;;;;;;;5.77;100.00;101242.19;5030279;28;20079;-71
2023/10/23 06:02:52;;;;;;;14.93;4.22;;;;;;;5.72;100.00;101235.28;5029086;28;20477;-74
2023/10/23 06:05:17;;;;;;;10.10;3.92;;;;;;;5.66;100.00;101231.03;5030691;28;20117;-70
2023/10/23 06:07:43;;;;;;;20.02;4.40;;;;;;;5.63;100.00;101233.88;5028461;28;20040;-71
2023/10/23 06:10:09;;;;;;;7.45;4.40;;;;;;;5.61;100.00;101238.47;5030336;28;20489;-72
2023/10/23 06:12:34;;;;;;;7.20;4.43;;;;;;;5.61;100.00;101238.47;5014923;28;21528;-71
2023/10/23 06:14:59;;;;;;;9.23;4.30;;;;;;;5.60;100.00;101239.44;5005454;28;20125;-71
2023/10/23 06:17:25;;;;;;;9.40;3.88;;;;;;;5.56;100.00;101235.09;5024221;28;20036;-70
2023/10/23 06:19:51;;;;;;;7.78;4.30;;;;;;;5.56;100.00;101238.69;5020600;28;20026;-71
2023/10/23 06:22:16;;;;;;;9.95;4.28;;;;;;;5.53;100.00;101232.53;5023923;28;20025;-70
2023/10/23 06:24:41;;;;;;;11.90;3.80;;;;;;;5.51;100.00;101239.84;5027834;28;20031;-72
2023/10/23 06:27:06;;;;;;;13.85;4.60;;;;;;;5.47;100.00;101239.09;5028867;28;20053;-71
2023/10/23 06:29:32;;;;;;;15.90;4.85;;;;;;;5.46;100.00;101242.75;5028459;28;20037;-70
2023/10/23 06:31:57;;;;;;;7.75;4.63;;;;;;;5.46;100.00;101237.34;5025719;28;20017;-71
2023/10/23 06:34:23;;;;;;;10.20;4.45;;;;;;;5.46;100.00;101240.03;5027893;28;20069;-70
2023/10/23 06:36:48;;;;;;;6.43;4.55;;;;;;;5.47;100.00;101246.31;5025376;28;20044;-70
2023/10/23 06:39:13;;;;;;;7.13;4.43;;;;;;;5.50;100.00;101244.38;5026155;28;20087;-71
2023/10/23 06:41:39;;;;;;;9.27;4.28;;;;;;;5.52;100.00;101245.16;5028970;28;20037;-70
2023/10/23 06:44:04;;;;;;;5.63;3.45;;;;;;;5.52;100.00;101237.06;5025826;28;20106;-70
2023/10/23 06:46:30;;;;;;;5.50;3.72;;;;;;;5.55;100.00;101239.63;5025914;28;20087;-70
2023/10/23 06:48:55;;;;;;;6.20;3.58;;;;;;;5.62;100.00;101242.91;5028574;28;20045;-71
2023/10/23 06:51:20;;;;;;;5.55;4.07;;;;;;;5.66;100.00;101246.34;5023206;28;20021;-70
2023/10/23 06:53:46;;;;;;;4.97;3.30;;;;;;;5.69;100.00;101243.50;5024612;28;20021;-70
2023/10/23 06:56:11;;;;;;;5.75;3.78;;;;;;;5.75;100.00;101251.34;5024632;28;20034;-72
2023/10/23 06:58:36;;;;;;;6.72;3.92;;;;;;;5.81;100.00;101242.94;5021463;28;20751;-71
2023/10/23 07:01:08;;;;;;;4.88;3.45;;;;;;;5.86;100.00;101230.97;5006134;28;20072;-72
2023/10/23 07:03:36;;;;;;;6.72;3.20;;;;;;;5.94;100.00;101233.38;5028342;28;20123;-71
2023/10/23 07:06:06;;;;;;;4.82;3.33;;;;;;;6.00;100.00;101235.75;5025477;28;20045;-73
2023/10/23 07:08:34;;;;;;;7.18;3.35;;;;;;;6.07;100.00;101239.94;5028425;28;20052;-71
2023/10/23 07:10:59;;;;;;;5.57;3.33;;;;;;;6.17;100.00;101234.09;5026917;28;20112;-71
2023/10/23 07:13:24;;;;;;;9.80;3.47;;;;;;;6.24;100.00;101235.53;5024548;28;20569;-71
2023/10/23 07:15:50;;;;;;;4.00;2.60;;;;;;;6.34;100.00;101239.53;5026753;28;20034;-70
2023/10/23 07:18:17;;;;;;;4.40;2.90;;;;;;;6.41;100.00;101230.22;5025557;28;20432;-71
2023/10/23 07:20:56;;;;;;;6.85;3.10;;;;;;;6.53;100.00;101231.44;5025365;28;20038;-72
2023/10/23 07:23:22;;;;;;;6.30;3.30;;;;;;;6.63;100.00;101243.53;5023476;28;20120;-71
2023/10/23 07:25:48;;;;;;;8.75;3.47;;;;;;;6.71;100.00;101233.19;5024186;28;20049;-70
2023/10/23 07:28:13;;;;;;;4.72;3.80;;;;;;;6.82;100.00;101232.69;5017119;28;20473;-71
2023/10/23 07:30:39;;;;;;;8.50;3.70;;;;;;;6.93;100.00;101226.72;5029058;28;20105;-71
2023/10/23 07:33:04;;;;;;;7.35;4.60;;;;;;;7.08;100.00;101220.50;5027841;28;20152;-71
2023/10/23 07:35:29;;;;;;;10.27;4.57;;;;;;;7.20;100.00;101221.72;5028907;28;20115;-71
2023/10/23 07:37:55;;;;;;;7.90;4.93;;;;;;;7.29;100.00;101229.34;5027713;28;20052;-71
2023/10/23 07:40:21;;;;;;;7.80;4.35;;;;;;;7.39;100.00;101231.47;5028911;28;20022;-70
2023/10/23 07:42:46;;;;;;;8.25;3.97;;;;;;;7.47;100.00;101235.63;5028950;28;20033;-71
2023/10/23 07:45:12;;;;;;;7.65;4.80;;;;;;;7.58;100.00;101239.50;5008857;28;20045;-70
2023/10/23 07:47:37;;;;;;;12.00;6.50;;;;;;;7.69;100.00;101244.31;5008560;28;20112;-70
2023/10/23 07:50:04;;;;;;;10.20;5.82;;;;;;;7.75;100.00;101246.72;5009244;28;20032;-70
2023/10/23 07:52:30;;;;;;;12.00;7.40;;;;;;;7.84;100.00;101238.09;5017895;28;20394;-71
2023/10/23 07:54:55;;;;;;;13.68;8.13;;;;;;;7.90;100.00;101243.16;5027005;28;20033;-70
2023/10/23 07:57:21;;;;;;;12.80;7.68;;;;;;;7.99;100.00;101241.78;5021301;28;20478;-71
2023/10/23 07:59:46;;;;;;;15.15;7.38;;;;;;;8.07;100.00;101239.53;5012057;28;20034;-71
2023/10/23 08:02:11;;;;;;;14.23;7.75;;;;;;;8.13;100.00;101241.91;5007912;28;20069;-70
2023/10/23 08:04:37;;;;;;;13.75;7.28;;;;;;;8.22;100.00;101245.06;5008486;28;20029;-71
2023/10/23 08:07:02;;;;;;;14.90;7.28;;;;;;;8.33;100.00;101237.19;5019440;28;20089;-71
2023/10/23 08:09:28;;;;;;;14.68;7.75;;;;;;;8.42;100.00;101233.97;5007954;28;20042;-70
2023/10/23 08:11:53;;;;;;;11.60;7.32;;;;;;;8.49;100.00;101232.69;5010978;28;20092;-70
2023/10/23 08:14:19;;;;;;;14.75;6.30;;;;;;;8.54;100.00;101229.69;5013888;28;20025;-72
2023/10/23 08:16:44;;;;;;;11.75;6.80;;;;;;;8.63;100.00;101226.47;5032119;28;20063;-72
2023/10/23 08:19:10;;;;;;;17.08;7.18;;;;;;;8.70;100.00;101214.25;5031869;28;20029;-70
2023/10/23 08:21:36;;;;;;;12.88;6.57;;;;;;;8.79;100.00;101221.88;5030698;28;20095;-70
2023/10/23 08:24:02;;;;;;;16.15;7.18;;;;;;;8.91;100.00;101221.16;5030611;28;20025;-70
2023/10/23 08:26:29;;;;;;;18.27;7.90;;;;;;;9.05;100.00;101211.31;5030622;28;20508;-71
2023/10/23 08:28:54;;;;;;;19.30;7.35;;;;;;;9.16;100.00;101222.38;5027600;28;20033;-70
2023/10/23 08:31:19;;;;;;;13.13;7.13;;;;;;;9.29;100.00;101220.69;5030471;28;20064;-71
2023/10/23 08:33:45;;;;;;;13.38;7.25;;;;;;;9.38;100.00;101224.66;5032138;28;20596;-71
2023/10/23 08:36:10;;;;;;;17.52;7.22;;;;;;;9.43;100.00;101228.84;5031631;28;20037;-71
2023/10/23 08:38:36;;;;;;;17.73;6.85;;;;;;;9.50;100.00;101229.31;5031685;28;20056;-71
2023/10/23 08:41:03;;;;;;;10.90;6.28;;;;;;;9.55;100.00;101232.63;5019414;28;20034;-71
2023/10/23 08:43:28;;;;;;;10.80;6.85;;;;;;;9.64;100.00;101232.06;5012702;28;20424;-72
2023/10/23 08:45:58;;;;;;;12.50;6.05;;;;;;;9.70;100.00;101236.25;5011638;28;20121;-71
2023/10/23 08:48:23;;;;;;;11.88;6.53;;;;;;;9.80;100.00;101236.56;5025237;28;20663;-70
2023/10/23 08:50:50;;;;;;;13.90;6.35;;;;;;;9.91;100.00;101239.44;5011906;28;20045;-70
2023/10/23 08:53:17;;;;;;;12.38;6.53;;;;;;;9.97;100.00;101237.19;5026388;28;20504;-71
2023/10/23 08:55:43;;;;;;;15.25;6.20;;;;;;;10.03;100.00;101229.66;5027285;28;20370;-71
2023/10/23 08:58:13;;;;;;;13.00;6.82;;;;;;;10.16;100.00;101233.31;5029082;28;20040;-70
2023/10/23 09:00:38;;;;;;;14.60;6.55;;;;;;;10.26;100.00;101233.63;5031193;28;20112;-71
2023/10/23 09:03:04;;;;;;;13.70;6.35;;;;;;;10.31;100.00;101229.66;5031566;28;20437;-71
2023/10/23 09:05:30;;;;;;;12.55;6.47;;;;;;;10.46;100.00;101225.91;5029552;28;20037;-72
2023/10/23 09:07:55;;;;;;;16.58;5.95;;;;;;;10.54;100.00;101213.63;5029648;28;20121;-72
2023/10/23 09:10:21;;;;;;;14.98;6.10;;;;;;;10.63;100.00;101218.47;5031713;28;20049;-71
2023/10/23 09:12:46;;;;;;;13.20;6.15;;;;;;;10.75;100.00;101223.09;5031295;28;20037;-71
2023/10/23 09:15:20;;;;;;;13.52;6.63;;;;;;;10.82;100.00;101220.81;5030948;28;20548;-71
2023/10/23 09:17:49;;;;;;;11.10;5.55;;;;;;;10.88;100.00;101215.88;5030854;28;20048;-70
2023/10/23 09:20:26;;;;;;;9.73;5.18;;;;;;;11.01;100.00;101209.59;5029087;28;20075;-71
2023/10/23 09:22:53;;;;;;;17.75;5.38;;;;;;;11.11;100.00;101207.97;5030639;28;20045;-71
2023/10/23 09:25:25;;;;;;;12.10;5.07;;;;;;;11.15;100.00;101202.22;5031280;28;20497;-70
2023/10/23 09:27:52;;;;;;;13.52;5.28;;;;;;;11.26;100.00;101206.91;5026400;28;20030;-70
2023/10/23 09:30:21;;;;;;;11.40;5.45;;;;;;;11.34;100.00;101207.25;5009760;28;20037;-69
2023/10/23 09:32:56;;;;;;;18.10;6.05;;;;;;;11.46;100.00;101203.66;5009731;28;20022;-69
2023/10/23 09:35:27;;;;;;;11.93;5.55;;;;;;;11.57;100.00;101197.47;5009604;28;20478;-69
2023/10/23 09:37:53;;;;;;;11.63;5.20;;;;;;;11.62;100.00;101200.72;5023205;28;20038;-70
2023/10/23 09:40:18;;;;;;;11.10;5.15;;;;;;;11.69;100.00;101190.25;5028345;28;20052;-70
2023/10/23 09:42:44;;;;;;;16.48;5.80;;;;;;;11.78;100.00;101195.03;5031616;28;20568;-70
2023/10/23 09:45:10;;;;;;;14.13;5.75;;;;;;;11.83;100.00;101181.09;5035863;28;20555;-69
2023/10/23 09:47:36;;;;;;;15.75;4.93;;;;;;;11.87;100.00;101177.19;5036565;28;20044;-70
2023/10/23 09:50:04;;;;;;;11.43;5.00;;;;;;;11.95;100.00;101183.81;5043618;28;20084;-71
2023/10/23 09:52:35;;;;;;;13.70;6.00;;;;;;;11.99;100.00;101179.03;5023022;28;20144;-70
2023/10/23 09:55:05;;;;;;;13.43;6.05;;;;;;;12.04;100.00;101187.75;5034254;28;20049;-71
2023/10/23 09:57:43;;;;;;;12.43;5.85;;;;;;;12.10;100.00;101191.88;5036470;28;20083;-69
2023/10/23 10:00:13;;;;;;;12.00;6.53;;;;;;;12.13;100.00;101187.06;5029803;28;20041;-69
2023/10/23 10:02:43;;;;;;;20.90;6.88;;;;;;;12.22;100.00;101189.13;5022508;28;20108;-69
2023/10/23 10:05:09;;;;;;;19.33;7.13;;;;;;;12.36;100.00;101179.91;5038168;28;20048;-70
2023/10/23 10:07:44;;;;;;;11.93;6.13;;;;;;;12.48;100.00;101178.97;5031090;28;20156;-71
2023/10/23 10:10:10;;;;;;;13.52;7.07;;;;;;;12.55;100.00;101184.00;5036601;28;20068;-70
2023/10/23 10:12:38;;;;;;;11.35;5.35;;;;;;;12.55;100.00;101184.00;5028735;28;20111;-71
2023/10/23 10:15:09;;;;;;;11.23;5.57;;;;;;;12.59;100.00;101174.56;5023945;28;20052;-70
2023/10/23 10:17:37;;;;;;;13.30;6.15;;;;;;;12.61;100.00;101165.28;5031224;28;20044;-72
2023/10/23 10:20:02;;;;;;;15.13;5.97;;;;;;;12.66;100.00;101173.13;5024057;28;20125;-70
2023/10/23 10:22:33;;;;;;;13.05;6.22;;;;;;;12.76;100.00;101174.16;5038557;28;20400;-70
2023/10/23 10:24:59;;;;;;;12.05;6.57;;;;;;;12.76;100.00;101166.84;5013636;28;20041;-70
2023/10/23 10:27:25;;;;;;;18.02;7.03;;;;;;;12.85;100.00;101168.00;5021992;28;20029;-72
2023/10/23 10:29:51;;;;;;;11.63;5.68;;;;;;;12.91;100.00;101162.03;5013311;28;20037;-70
2023/10/23 10:32:17;;;;;;;14.68;6.25;;;;;;;13.02;100.00;101166.69;5006835;28;20501;-70
2023/10/23 10:34:45;;;;;;;15.38;5.75;;;;;;;12.99;100.00;101159.59;5025690;28;20064;-70
2023/10/23 10:37:11;;;;;;;11.73;5.10;;;;;;;12.99;100.00;101153.28;5026885;28;20092;-70
2023/10/23 10:39:52;;;;;;;19.63;6.32;;;;;;;13.01;100.00;101149.44;5026868;28;20045;-72
2023/10/23 10:42:19;;;;;;;15.00;5.07;;;;;;;13.12;100.00;101145.00;5007412;28;20054;-70
2023/10/23 10:44:54;;;;;;;16.35;5.68;;;;;;;13.26;100.00;101147.53;5026593;28;20045;-70
2023/10/23 10:47:21;;;;;;;10.30;4.97;;;;;;;13.27;100.00;101133.75;5028213;28;20073;-73
2023/10/23 10:49:47;;;;;;;14.07;5.07;;;;;;;13.32;100.00;101138.84;5028653;28;20025;-71
2023/10/23 10:52:36;;;;;;;12.10;4.65;;;;;;;13.41;100.00;101134.53;5027881;28;20037;-70
2023/10/23 10:55:04;;;;;;;16.25;5.20;;;;;;;13.46;100.00;101133.16;5028877;28;20488;-70
2023/10/23 10:57:30;;;;;;;10.30;5.13;;;;;;;13.50;100.00;101120.97;5026918;28;20025;-70
2023/10/23 10:59:59;;;;;;;10.32;5.00;;;;;;;13.55;100.00;101123.34;5028993;28;20103;-71
2023/10/23 11:02:25;;;;;;;10.85;5.22;;;;;;;13.63;100.00;101111.81;5028320;28;20022;-70
2023/10/23 11:04:50;;;;;;;11.63;5.88;;;;;;;13.68;100.00;101109.56;5029352;28;20037;-71
2023/10/23 11:07:26;;;;;;;15.40;5.13;;;;;;;13.71;100.00;101104.72;5027984;28;20060;-71
2023/10/23 11:09:53;;;;;;;16.38;5.00;;;;;;;13.74;100.00;101103.59;5027634;28;20393;-74
2023/10/23 11:12:19;;;;;;;12.38;5.30;;;;;;;13.77;99.97;101093.28;5028989;28;20043;-70
2023/10/23 11:14:47;;;;;;;15.93;4.85;;;;;;;13.87;100.00;101092.53;5028891;28;20068;-70